createdAt,value
2023-05-21T00:00:18.084Z,46.07
2023-05-21T00:02:47.087Z,46.11
2023-05-21T00:05:19.311Z,46.37
2023-05-21T00:07:48.523Z,46.82
2023-05-21T00:10:17.977Z,47.34
2023-05-21T00:12:46.954Z,46.84
2023-05-21T00:15:15.777Z,47.87
2023-05-21T00:17:45.180Z,47.34
2023-05-21T00:20:14.149Z,47.89
2023-05-21T00:22:43.246Z,48.06
2023-05-21T00:25:13.033Z,48.01
2023-05-21T00:27:42.003Z,48.75
2023-05-21T00:30:11.218Z,48.08
2023-05-21T00:32:40.196Z,49.20
2023-05-21T00:35:10.026Z,48.18
2023-05-21T00:37:39.236Z,49.41
2023-05-21T00:40:09.843Z,48.35
2023-05-21T00:42:40.765Z,48.31
2023-05-21T00:45:10.268Z,47.84
2023-05-21T00:47:40.075Z,47.57
2023-05-21T00:50:09.841Z,46.09
2023-05-21T00:52:42.648Z,44.25
2023-05-21T00:55:11.807Z,42.63
2023-05-21T00:57:41.527Z,41.54
2023-05-21T01:00:11.460Z,40.53
2023-05-21T01:02:40.780Z,39.50
2023-05-21T01:05:10.976Z,39.38
2023-05-21T01:07:42.130Z,38.22
2023-05-21T01:10:13.739Z,38.19
2023-05-21T01:12:45.730Z,37.44
2023-05-21T01:15:15.217Z,37.60
2023-05-21T01:17:46.501Z,37.39
2023-05-21T01:20:21.003Z,37.87
2023-05-21T01:22:52.783Z,38.18
2023-05-21T01:25:22.063Z,37.81
2023-05-21T01:27:52.471Z,38.45
2023-05-21T01:30:23.358Z,38.42
2023-05-21T01:33:30.617Z,38.63
2023-05-21T01:36:27.160Z,38.97
2023-05-21T01:39:03.080Z,38.51
2023-05-21T01:41:37.950Z,38.84
2023-05-21T01:44:08.244Z,39.71
2023-05-21T01:46:38.785Z,40.15
2023-05-21T01:49:09.027Z,39.71
2023-05-21T01:51:38.803Z,39.60
2023-05-21T01:54:07.642Z,39.98
2023-05-21T01:56:37.684Z,40.49
2023-05-21T01:59:06.733Z,39.86
2023-05-21T02:01:35.554Z,39.63
2023-05-21T02:04:04.818Z,40.04
2023-05-21T02:06:34.105Z,39.48
2023-05-21T02:09:04.345Z,39.25
2023-05-21T02:11:33.149Z,39.55
2023-05-21T02:14:02.312Z,38.51
2023-05-21T02:16:31.868Z,37.93
2023-05-21T02:19:01.357Z,37.42
2023-05-21T02:21:30.347Z,38.40
2023-05-21T02:23:59.318Z,37.83
2023-05-21T02:26:28.610Z,37.46
2023-05-21T02:28:57.551Z,37.53
2023-05-21T02:31:26.742Z,37.31
2023-05-21T02:33:55.600Z,36.58
2023-05-21T02:36:26.129Z,36.20
2023-05-21T02:38:55.336Z,36.35
2023-05-21T02:41:24.289Z,36.25
2023-05-21T02:43:53.191Z,35.10
2023-05-21T02:46:22.674Z,35.33
2023-05-21T02:48:51.596Z,35.63
2023-05-21T02:51:20.323Z,34.77
2023-05-21T02:53:49.880Z,35.75
2023-05-21T02:56:19.447Z,34.39
2023-05-21T02:58:49.072Z,34.25
2023-05-21T03:01:17.890Z,33.56
2023-05-21T03:03:47.305Z,33.33
2023-05-21T03:06:17.293Z,33.27
2023-05-21T03:08:46.252Z,33.56
2023-05-21T03:11:15.245Z,33.32
2023-05-21T03:13:44.146Z,32.24
2023-05-21T03:16:13.112Z,32.04
2023-05-21T03:18:42.076Z,32.70
2023-05-21T03:21:14.064Z,32.02
2023-05-21T03:23:45.368Z,31.25
2023-05-21T03:26:14.864Z,30.57
2023-05-21T03:28:44.500Z,30.47
2023-05-21T03:31:13.504Z,31.04
2023-05-21T03:34:14.485Z,30.44
2023-05-21T03:36:43.461Z,29.59
2023-05-21T03:39:12.668Z,29.19
2023-05-21T03:41:41.826Z,30.13
2023-05-21T03:44:17.987Z,28.20
2023-05-21T03:46:55.367Z,28.62
2023-05-21T03:49:33.143Z,28.11
2023-05-21T03:52:02.410Z,28.67
2023-05-21T03:54:31.240Z,27.77
2023-05-21T03:57:04.652Z,27.55
2023-05-21T03:59:34.866Z,27.11
2023-05-21T04:02:06.162Z,26.91
2023-05-21T04:04:35.221Z,27.59
2023-05-21T04:07:05.325Z,27.20
2023-05-21T04:09:36.512Z,26.00
2023-05-21T04:12:05.808Z,26.42
2023-05-21T04:14:35.210Z,26.11
2023-05-21T04:17:06.151Z,26.13
2023-05-21T04:19:35.397Z,25.87
2023-05-21T04:22:05.754Z,25.45
2023-05-21T04:24:37.687Z,25.96
2023-05-21T04:27:17.691Z,25.56
2023-05-21T04:29:47.614Z,25.08
2023-05-21T04:32:18.858Z,25.52
2023-05-21T04:34:47.748Z,25.19
2023-05-21T04:37:18.764Z,25.48
2023-05-21T04:39:47.698Z,24.50
2023-05-21T04:42:16.608Z,24.57
2023-05-21T04:44:45.476Z,24.75
2023-05-21T04:47:15.405Z,24.76
2023-05-21T04:49:45.111Z,24.35
2023-05-21T04:52:14.795Z,23.80
2023-05-21T04:54:44.179Z,23.42
2023-05-21T04:57:13.331Z,23.27
2023-05-21T04:59:44.446Z,23.80
2023-05-21T05:02:13.224Z,23.45
2023-05-21T05:04:42.158Z,24.20
2023-05-21T05:07:11.768Z,22.73
2023-05-21T05:09:43.785Z,22.63
2023-05-21T05:12:12.934Z,22.95
2023-05-21T05:14:41.765Z,22.67
2023-05-21T05:17:11.396Z,23.06
2023-05-21T05:19:40.728Z,22.47
2023-05-21T05:22:10.401Z,22.08
2023-05-21T05:24:40.827Z,22.42
2023-05-21T05:27:09.530Z,22.20
2023-05-21T05:29:38.488Z,21.76
2023-05-21T05:32:08.133Z,21.56
2023-05-21T05:34:36.949Z,22.28
2023-05-21T05:37:07.448Z,22.35
2023-05-21T05:39:36.177Z,22.31
2023-05-21T05:42:05.554Z,22.51
2023-05-21T05:44:34.481Z,22.58
2023-05-21T05:47:03.730Z,23.06
2023-05-21T05:49:32.516Z,23.66
2023-05-21T05:52:02.328Z,23.50
2023-05-21T05:54:31.410Z,23.09
2023-05-21T05:57:00.490Z,21.78
2023-05-21T05:59:29.598Z,22.62
2023-05-21T06:02:02.293Z,21.82
2023-05-21T06:04:31.321Z,21.86
2023-05-21T06:07:03.366Z,22.24
2023-05-21T06:09:34.485Z,22.22
2023-05-21T06:12:03.273Z,22.55
2023-05-21T06:14:32.589Z,22.51
2023-05-21T06:17:01.562Z,21.95
2023-05-21T06:19:30.372Z,22.83
2023-05-21T06:21:59.366Z,22.34
2023-05-21T06:24:28.646Z,22.00
2023-05-21T06:26:57.964Z,22.43
2023-05-21T06:29:27.096Z,21.63
2023-05-21T06:31:56.392Z,21.36
2023-05-21T06:34:25.438Z,22.24
2023-05-21T06:36:58.978Z,22.54
2023-05-21T06:39:28.565Z,22.58
2023-05-21T06:41:57.956Z,24.01
2023-05-21T06:44:45.575Z,23.73
2023-05-21T06:47:38.380Z,22.16
2023-05-21T06:50:07.581Z,22.22
2023-05-21T06:52:36.703Z,21.90
2023-05-21T06:55:06.188Z,21.69
2023-05-21T06:57:55.048Z,21.73
2023-05-21T07:00:24.554Z,21.51
2023-05-21T07:02:53.492Z,21.33
2023-05-21T07:05:22.533Z,21.04
2023-05-21T07:07:51.714Z,21.24
2023-05-21T07:10:21.373Z,20.84
2023-05-21T07:12:50.247Z,20.47
2023-05-21T07:15:21.923Z,21.07
2023-05-21T07:17:50.804Z,21.24
2023-05-21T07:20:20.733Z,20.63
2023-05-21T07:22:52.286Z,20.27
2023-05-21T07:25:21.504Z,19.97
2023-05-21T07:27:50.464Z,20.55
2023-05-21T07:30:19.243Z,20.05
2023-05-21T07:32:49.191Z,21.06
2023-05-21T07:35:18.104Z,20.18
2023-05-21T07:37:47.857Z,20.11
2023-05-21T07:40:17.024Z,20.55
2023-05-21T07:42:46.703Z,20.42
2023-05-21T07:45:20.006Z,20.80
2023-05-21T07:47:48.907Z,21.20
2023-05-21T07:50:18.247Z,22.73
2023-05-21T07:52:47.666Z,21.08
2023-05-21T07:55:17.474Z,21.62
2023-05-21T07:57:47.152Z,21.09
2023-05-21T08:00:18.398Z,21.12
2023-05-21T08:02:53.905Z,22.18
2023-05-21T08:05:24.152Z,21.85
2023-05-21T08:07:53.347Z,21.16
2023-05-21T08:10:23.471Z,20.57
2023-05-21T08:12:53.766Z,21.01
2023-05-21T08:15:23.345Z,20.04
2023-05-21T08:17:52.418Z,20.21
2023-05-21T08:20:21.924Z,20.50
2023-05-21T08:22:51.967Z,20.94
2023-05-21T08:25:21.646Z,20.11
2023-05-21T08:27:52.333Z,20.17
2023-05-21T08:30:21.942Z,20.37
2023-05-21T08:32:50.823Z,19.97
2023-05-21T08:35:22.030Z,19.86
2023-05-21T08:37:59.597Z,19.93
2023-05-21T08:40:44.306Z,19.97
2023-05-21T08:43:17.303Z,19.99
2023-05-21T08:45:55.923Z,20.40
2023-05-21T08:48:29.126Z,19.91
2023-05-21T08:51:00.467Z,19.62
2023-05-21T08:53:36.936Z,19.84
2023-05-21T08:56:09.993Z,18.80
2023-05-21T08:58:52.268Z,20.01
2023-05-21T09:01:26.553Z,19.74
2023-05-21T09:04:20.139Z,19.71
2023-05-21T09:06:55.478Z,19.82
2023-05-21T09:09:48.345Z,19.90
2023-05-21T09:12:17.904Z,19.73
2023-05-21T09:14:49.268Z,19.31
2023-05-21T09:17:21.309Z,19.18
2023-05-21T09:20:14.189Z,19.77
2023-05-21T09:22:52.739Z,20.00
2023-05-21T09:25:28.916Z,19.82
2023-05-21T09:28:02.142Z,19.35
2023-05-21T09:30:33.319Z,19.41
2023-05-21T09:33:07.824Z,20.06
2023-05-21T09:35:38.252Z,19.55
2023-05-21T09:38:10.519Z,19.66
2023-05-21T09:40:46.522Z,19.56
2023-05-21T09:43:17.227Z,19.59
2023-05-21T09:45:54.158Z,19.93
2023-05-21T09:48:35.537Z,19.37
2023-05-21T09:51:10.839Z,19.04
2023-05-21T09:53:59.378Z,19.20
2023-05-21T09:56:32.973Z,19.39
2023-05-21T09:59:07.726Z,19.94
2023-05-21T10:01:38.330Z,19.07
2023-05-21T10:04:11.587Z,19.59
2023-05-21T10:06:45.424Z,18.92
2023-05-21T10:09:20.264Z,19.39
2023-05-21T10:11:53.894Z,18.85
2023-05-21T10:14:26.364Z,18.23
2023-05-21T10:16:58.986Z,18.62
2023-05-21T10:19:32.712Z,18.72
2023-05-21T10:22:02.311Z,18.60
2023-05-21T10:24:32.816Z,18.39
2023-05-21T10:27:04.875Z,18.82
2023-05-21T10:29:36.458Z,18.85
2023-05-21T10:32:06.955Z,18.97
2023-05-21T10:34:37.712Z,18.51
2023-05-21T10:37:10.563Z,18.69
2023-05-21T10:39:40.619Z,18.94
2023-05-21T10:42:25.144Z,19.05
2023-05-21T10:45:18.766Z,18.50
2023-05-21T10:48:24.922Z,18.76
2023-05-21T10:51:17.606Z,18.71
2023-05-21T10:54:17.563Z,19.20
2023-05-21T10:56:58.467Z,19.43
2023-05-21T11:00:04.955Z,19.44
2023-05-21T11:02:37.900Z,19.76
2023-05-21T11:05:07.878Z,19.89
2023-05-21T11:07:58.522Z,19.90
2023-05-21T11:10:39.068Z,19.42
2023-05-21T11:13:15.477Z,19.71
2023-05-21T11:15:59.920Z,19.68
2023-05-21T11:18:39.158Z,19.99
2023-05-21T11:21:11.253Z,19.23
2023-05-21T11:23:52.355Z,19.79
2023-05-21T11:26:25.692Z,18.89
2023-05-21T11:29:07.154Z,19.49
2023-05-21T11:31:40.887Z,19.68
2023-05-21T11:34:10.373Z,19.33
2023-05-21T11:36:45.071Z,18.92
2023-05-21T11:39:25.760Z,18.70
2023-05-21T11:42:04.447Z,19.07
2023-05-21T11:44:43.409Z,19.40
2023-05-21T11:47:15.534Z,19.34
2023-05-21T11:49:45.067Z,19.63
2023-05-21T11:52:15.695Z,19.76
2023-05-21T11:54:51.494Z,19.48
2023-05-21T11:57:21.176Z,19.63
2023-05-21T11:59:54.739Z,19.54
2023-05-21T12:02:23.932Z,20.09
2023-05-21T12:04:52.887Z,19.44
2023-05-21T12:07:22.791Z,20.19
2023-05-21T12:09:53.332Z,19.79
2023-05-21T12:12:25.128Z,19.41
2023-05-21T12:14:55.705Z,19.54
2023-05-21T12:17:25.946Z,19.27
2023-05-21T12:19:57.910Z,19.56
2023-05-21T12:22:29.020Z,20.53
2023-05-21T12:24:59.246Z,20.07
2023-05-21T12:27:29.015Z,19.67
2023-05-21T12:29:58.283Z,20.19
2023-05-21T12:32:30.006Z,20.66
2023-05-21T12:34:59.165Z,20.56
2023-05-21T12:37:36.448Z,20.45
2023-05-21T12:40:06.274Z,19.81
2023-05-21T12:42:38.395Z,19.68
2023-05-21T12:45:09.278Z,19.88
2023-05-21T12:47:38.556Z,20.41
2023-05-21T12:50:14.766Z,20.40
2023-05-21T12:52:45.184Z,20.44
2023-05-21T12:55:20.827Z,19.87
2023-05-21T12:57:50.066Z,20.30
2023-05-21T13:00:25.025Z,19.96
2023-05-21T13:02:54.223Z,19.68
2023-05-21T13:05:23.252Z,19.93
2023-05-21T13:07:52.692Z,20.30
2023-05-21T13:10:21.485Z,20.50
2023-05-21T13:12:50.559Z,20.21
2023-05-21T13:15:20.407Z,20.54
2023-05-21T13:17:50.554Z,20.05
2023-05-21T13:20:24.583Z,20.31
2023-05-21T13:22:53.773Z,20.23
2023-05-21T13:25:25.807Z,20.72
2023-05-21T13:27:55.540Z,20.66
2023-05-21T13:30:24.559Z,21.05
2023-05-21T13:32:53.604Z,20.92
2023-05-21T13:35:23.007Z,21.30
2023-05-21T13:37:52.324Z,21.14
2023-05-21T13:40:21.628Z,20.92
2023-05-21T13:42:51.073Z,21.28
2023-05-21T13:45:21.850Z,21.32
2023-05-21T13:47:51.223Z,21.82
2023-05-21T13:50:20.213Z,21.78
2023-05-21T13:52:49.328Z,22.35
2023-05-21T13:55:19.693Z,23.21
2023-05-21T13:57:48.581Z,23.08
2023-05-21T14:00:17.563Z,24.56
2023-05-21T14:02:46.387Z,25.30
2023-05-21T14:05:15.425Z,26.16
2023-05-21T14:07:44.521Z,26.69
2023-05-21T14:10:13.409Z,26.61
2023-05-21T14:12:46.807Z,26.52
2023-05-21T14:15:18.565Z,27.19
2023-05-21T14:17:47.501Z,28.08
2023-05-21T14:20:16.284Z,29.49
2023-05-21T14:22:45.498Z,29.93
2023-05-21T14:25:14.438Z,30.07
2023-05-21T14:27:43.628Z,29.86
2023-05-21T14:30:12.868Z,28.24
2023-05-21T14:32:42.023Z,28.17
2023-05-21T14:35:11.026Z,29.76
2023-05-21T14:37:40.191Z,29.39
2023-05-21T14:40:09.701Z,30.33
2023-05-21T14:42:38.747Z,30.33
2023-05-21T14:45:18.693Z,30.62
2023-05-21T14:47:48.952Z,30.57
2023-05-21T14:50:19.053Z,31.37
2023-05-21T14:52:48.364Z,31.11
2023-05-21T14:55:23.078Z,32.13
2023-05-21T14:57:52.245Z,32.51
2023-05-21T15:00:21.726Z,32.76
2023-05-21T15:02:55.788Z,32.05
2023-05-21T15:05:32.796Z,32.86
2023-05-21T15:08:02.339Z,33.27
2023-05-21T15:10:31.663Z,31.52
2023-05-21T15:13:00.520Z,30.62
2023-05-21T15:15:29.359Z,30.44
2023-05-21T15:17:58.790Z,31.37
2023-05-21T15:20:27.887Z,31.09
2023-05-21T15:23:15.438Z,30.41
2023-05-21T15:25:46.488Z,30.17
2023-05-21T15:28:15.814Z,30.85
2023-05-21T15:30:44.864Z,30.79
2023-05-21T15:33:13.863Z,30.76
2023-05-21T15:35:43.138Z,30.80
2023-05-21T15:38:12.408Z,30.51
2023-05-21T15:40:45.086Z,30.55
2023-05-21T15:43:14.484Z,30.30
2023-05-21T15:45:43.388Z,30.68
2023-05-21T15:48:13.444Z,30.50
2023-05-21T15:50:42.561Z,31.14
2023-05-21T15:53:12.593Z,31.37
2023-05-21T15:55:41.647Z,31.49
2023-05-21T15:58:10.983Z,31.94
2023-05-21T16:00:42.493Z,32.30
2023-05-21T16:03:13.396Z,32.79
2023-05-21T16:05:42.590Z,33.28
2023-05-21T16:08:13.072Z,33.73
2023-05-21T16:10:42.029Z,33.62
2023-05-21T16:13:11.338Z,34.25
2023-05-21T16:15:41.167Z,34.43
2023-05-21T16:18:10.505Z,34.50
2023-05-21T16:20:40.053Z,34.68
2023-05-21T16:23:12.951Z,34.91
2023-05-21T16:25:42.377Z,35.05
2023-05-21T16:28:12.829Z,35.21
2023-05-21T16:30:41.991Z,35.63
2023-05-21T16:33:12.196Z,35.42
2023-05-21T16:35:41.328Z,35.96
2023-05-21T16:38:10.684Z,35.81
2023-05-21T16:40:41.302Z,36.00
2023-05-21T16:43:10.416Z,36.27
2023-05-21T16:45:45.215Z,36.48
2023-05-21T16:48:14.714Z,36.84
2023-05-21T16:50:44.314Z,37.72
2023-05-21T16:53:13.620Z,36.98
2023-05-21T16:55:43.934Z,37.06
2023-05-21T16:58:14.491Z,36.79
2023-05-21T17:00:43.151Z,36.44
2023-05-21T17:03:13.506Z,36.54
2023-05-21T17:05:42.805Z,38.27
2023-05-21T17:08:11.704Z,37.12
2023-05-21T17:10:40.378Z,37.22
2023-05-21T17:13:21.673Z,38.19
2023-05-21T17:15:54.506Z,37.62
2023-05-21T17:18:23.633Z,38.51
2023-05-21T17:20:52.549Z,39.47
2023-05-21T17:23:21.374Z,39.61
2023-05-21T17:25:53.350Z,40.17
2023-05-21T17:28:22.550Z,40.13
2023-05-21T17:30:52.300Z,39.19
2023-05-21T17:33:22.214Z,39.27
2023-05-21T17:35:52.154Z,39.72
2023-05-21T17:38:21.418Z,38.79
2023-05-21T17:40:51.377Z,38.37
2023-05-21T17:43:20.325Z,38.45
2023-05-21T17:45:49.122Z,38.17
2023-05-21T17:48:18.529Z,38.07
2023-05-21T17:50:47.928Z,38.06
2023-05-21T17:53:17.406Z,38.08
2023-05-21T17:55:46.785Z,38.36
2023-05-21T17:58:16.549Z,38.60
2023-05-21T18:00:45.939Z,38.63
2023-05-21T18:03:15.298Z,38.87
2023-05-21T18:05:44.516Z,38.49
2023-05-21T18:08:13.486Z,38.14
2023-05-21T18:10:43.502Z,38.63
2023-05-21T18:13:12.689Z,39.14
2023-05-21T18:15:41.778Z,38.60
2023-05-21T18:18:10.769Z,39.07
2023-05-21T18:20:39.670Z,39.11
2023-05-21T18:23:08.566Z,39.17
2023-05-21T18:25:37.303Z,39.11
2023-05-21T18:28:06.386Z,39.32
2023-05-21T18:30:37.318Z,39.58
2023-05-21T18:33:06.451Z,39.18
2023-05-21T18:35:35.764Z,39.60
2023-05-21T18:38:04.898Z,39.93
2023-05-21T18:40:34.061Z,39.70
2023-05-21T18:43:07.182Z,40.29
2023-05-21T18:45:36.693Z,40.30
2023-05-21T18:48:05.977Z,40.07
2023-05-21T18:50:35.710Z,40.65
2023-05-21T18:53:05.489Z,40.33
2023-05-21T18:55:35.425Z,40.75
2023-05-21T18:58:04.357Z,40.76
2023-05-21T19:00:34.858Z,40.74
2023-05-21T19:03:03.996Z,41.32
2023-05-21T19:05:33.223Z,41.44
2023-05-21T19:08:02.006Z,40.83
2023-05-21T19:10:31.505Z,41.22
2023-05-21T19:13:00.409Z,41.78
2023-05-21T19:15:29.322Z,41.28
2023-05-21T19:17:58.093Z,41.65
2023-05-21T19:20:29.935Z,41.77
2023-05-21T19:22:58.724Z,41.86
2023-05-21T19:25:28.243Z,42.52
2023-05-21T19:27:57.223Z,42.27
2023-05-21T19:30:26.474Z,42.96
2023-05-21T19:32:55.599Z,42.59
2023-05-21T19:35:24.411Z,42.98
2023-05-21T19:37:55.344Z,43.28
2023-05-21T19:40:24.404Z,43.19
2023-05-21T19:42:53.346Z,43.63
2023-05-21T19:45:22.326Z,43.67
2023-05-21T19:47:52.116Z,44.18
2023-05-21T19:50:20.848Z,43.89
2023-05-21T19:52:49.771Z,44.40
2023-05-21T19:55:20.978Z,44.78
2023-05-21T19:57:49.901Z,45.31
2023-05-21T20:00:19.018Z,45.49
2023-05-21T20:02:48.101Z,45.40
2023-05-21T20:05:17.057Z,45.33
2023-05-21T20:07:45.973Z,46.10
2023-05-21T20:10:15.208Z,46.04
2023-05-21T20:12:44.244Z,45.90
2023-05-21T20:15:15.168Z,45.84
2023-05-21T20:17:44.948Z,45.85
2023-05-21T20:20:13.870Z,46.11
2023-05-21T20:22:42.652Z,46.41
2023-05-21T20:25:11.578Z,47.10
2023-05-21T20:27:40.400Z,46.90
2023-05-21T20:30:09.972Z,47.02
2023-05-21T20:32:39.016Z,47.16
2023-05-21T20:35:12.190Z,47.80
2023-05-21T20:37:41.098Z,47.42
2023-05-21T20:40:13.397Z,47.51
2023-05-21T20:42:45.660Z,48.02
2023-05-21T20:45:16.656Z,48.22
2023-05-21T20:47:45.454Z,48.11
2023-05-21T20:50:14.359Z,48.55
2023-05-21T20:52:46.237Z,48.45
2023-05-21T20:55:15.883Z,48.60
2023-05-21T20:57:44.859Z,48.53
2023-05-21T21:00:14.337Z,49.93
2023-05-21T21:02:43.338Z,49.77
2023-05-21T21:05:12.238Z,49.98
2023-05-21T21:07:41.241Z,49.72
2023-05-21T21:10:10.602Z,50.22
2023-05-21T21:12:39.439Z,50.33
2023-05-21T21:15:09.177Z,50.47
2023-05-21T21:17:38.140Z,50.71
2023-05-21T21:20:08.659Z,50.52
2023-05-21T21:22:37.475Z,50.80
2023-05-21T21:25:07.057Z,51.14
2023-05-21T21:27:35.769Z,51.07
2023-05-21T21:30:05.578Z,51.20
2023-05-21T21:32:34.376Z,51.33
2023-05-21T21:35:03.204Z,51.63
2023-05-21T21:37:32.123Z,51.99
2023-05-21T21:40:01.061Z,51.68
2023-05-21T21:42:30.264Z,52.15
2023-05-21T21:44:59.043Z,52.28
2023-05-21T21:47:27.934Z,51.90
2023-05-21T21:49:56.844Z,51.67
2023-05-21T21:52:28.263Z,52.23
2023-05-21T21:54:57.223Z,52.07
2023-05-21T21:57:28.225Z,52.60
2023-05-21T21:59:57.269Z,52.81
2023-05-21T22:02:26.683Z,53.15
2023-05-21T22:04:55.514Z,53.39
2023-05-21T22:07:24.546Z,53.62
2023-05-21T22:09:53.366Z,53.73
2023-05-21T22:12:23.448Z,53.57
2023-05-21T22:14:52.448Z,53.51
2023-05-21T22:17:22.220Z,53.49
2023-05-21T22:19:51.594Z,53.79
2023-05-21T22:22:20.362Z,54.11
2023-05-21T22:24:49.217Z,53.81
2023-05-21T22:27:18.166Z,53.43
2023-05-21T22:29:47.088Z,54.34
2023-05-21T22:32:15.853Z,54.71
2023-05-21T22:34:44.776Z,54.78
2023-05-21T22:37:13.550Z,55.15
2023-05-21T22:39:42.427Z,55.96
2023-05-21T22:42:11.548Z,55.77
2023-05-21T22:44:40.250Z,56.03
2023-05-21T22:47:10.205Z,56.15
2023-05-21T22:49:39.049Z,55.89
2023-05-21T22:52:09.867Z,55.81
2023-05-21T22:54:38.748Z,55.53
2023-05-21T22:57:07.668Z,55.21
2023-05-21T22:59:36.794Z,55.60
2023-05-21T23:02:06.148Z,56.04
2023-05-21T23:04:43.183Z,55.03
2023-05-21T23:07:13.257Z,55.30
2023-05-21T23:09:44.585Z,55.56
2023-05-21T23:12:13.549Z,55.58
2023-05-21T23:14:42.574Z,55.04
2023-05-21T23:17:12.016Z,55.39
2023-05-21T23:19:41.345Z,55.70
2023-05-21T23:22:10.246Z,55.88
2023-05-21T23:24:39.788Z,55.03
2023-05-21T23:27:08.738Z,55.62
2023-05-21T23:29:37.411Z,56.30
2023-05-21T23:32:06.853Z,55.52
2023-05-21T23:34:35.927Z,55.84
2023-05-21T23:37:07.064Z,56.13
2023-05-21T23:39:36.126Z,55.59
2023-05-21T23:42:05.389Z,55.70
2023-05-21T23:44:34.264Z,56.29
2023-05-21T23:47:03.281Z,55.86
2023-05-21T23:49:32.153Z,55.64
2023-05-21T23:52:00.836Z,55.85
2023-05-21T23:54:29.801Z,55.91
2023-05-21T23:56:58.651Z,56.45
2023-05-21T23:59:27.686Z,55.97
